createdAt,value
2016-12-03T00:00:34.052Z,443.42
2016-12-03T00:01:34.074Z,442.59
2016-12-03T00:02:34.188Z,441.76
2016-12-03T00:03:34.075Z,440.9
2016-12-03T00:04:34.095Z,440.72
2016-12-03T00:05:34.065Z,441.55
2016-12-03T00:06:34.175Z,441.34
2016-12-03T00:07:34.176Z,438.76
2016-12-03T00:08:34.223Z,439.81
2016-12-03T00:09:34.192Z,438.99
2016-12-03T00:10:34.274Z,439.89
2016-12-03T00:11:34.096Z,440.05
2016-12-03T00:12:34.261Z,438.61
2016-12-03T00:13:34.221Z,439.01
2016-12-03T00:14:34.181Z,437.09
2016-12-03T00:15:34.197Z,436.25
2016-12-03T00:16:34.161Z,432.84
2016-12-03T00:17:34.112Z,432.19
2016-12-03T00:18:34.131Z,431.48
2016-12-03T00:19:34.104Z,431.23
2016-12-03T00:20:34.211Z,432.08
2016-12-03T00:21:34.097Z,431.08
2016-12-03T00:22:34.096Z,432.76
2016-12-03T00:23:34.048Z,432.96
2016-12-03T00:24:34.160Z,432.53
2016-12-03T00:25:34.081Z,431.74
2016-12-03T00:26:34.115Z,429.35
2016-12-03T00:27:34.061Z,427.72
2016-12-03T00:28:34.840Z,424.93
2016-12-03T00:29:34.126Z,425.57
2016-12-03T00:30:34.061Z,423.23
2016-12-03T00:31:34.016Z,425.34
2016-12-03T00:32:34.138Z,425.59
2016-12-03T00:33:34.040Z,426.19
2016-12-03T00:34:34.123Z,424.66
2016-12-03T00:35:34.084Z,425.13
2016-12-03T00:36:34.190Z,421.91
2016-12-03T00:37:34.309Z,420.86
2016-12-03T00:38:34.131Z,418.51
2016-12-03T00:39:34.124Z,417.83
2016-12-03T00:40:34.161Z,418.34
2016-12-03T00:45:03.638Z,418.96
2016-12-03T00:46:03.525Z,418.76
2016-12-03T00:47:03.481Z,415.97
2016-12-03T00:48:03.523Z,417.02
2016-12-03T00:49:03.602Z,416.57
2016-12-03T00:50:03.583Z,418.31
2016-12-03T00:51:03.532Z,415.89
2016-12-03T00:52:03.527Z,411.47
2016-12-03T00:53:03.659Z,414.77
2016-12-03T00:54:03.534Z,414.57
2016-12-03T00:55:03.628Z,411.78
2016-12-03T00:56:03.489Z,410.03
2016-12-03T00:57:03.563Z,410.08
2016-12-03T00:58:03.527Z,410.1
2016-12-03T00:59:03.578Z,408.55
2016-12-03T01:00:03.611Z,410.96
2016-12-03T01:01:03.591Z,409.41
2016-12-03T01:02:03.803Z,407.22
2016-12-03T01:03:03.587Z,409.83
2016-12-03T01:04:03.590Z,407.39
2016-12-03T01:05:03.709Z,407.44
2016-12-03T01:06:03.624Z,408.32
2016-12-03T01:07:03.579Z,406.54
2016-12-03T01:08:03.563Z,408.33
2016-12-03T01:09:03.552Z,405.96
2016-12-03T01:10:03.547Z,404.23
2016-12-03T01:11:03.523Z,405.07
2016-12-03T01:12:03.527Z,402.47
2016-12-03T01:13:03.679Z,400.5
2016-12-03T01:14:03.573Z,401.1
2016-12-03T01:15:03.629Z,402.6
2016-12-03T01:16:03.577Z,404.73
2016-12-03T01:17:03.582Z,403.46
2016-12-03T01:18:03.543Z,397.82
2016-12-03T01:19:03.575Z,398.93
2016-12-03T01:20:03.576Z,397
2016-12-03T01:21:03.563Z,397.4
2016-12-03T01:22:03.594Z,395.25
2016-12-03T01:23:03.708Z,395.68
2016-12-03T01:24:03.555Z,393.56
2016-12-03T01:25:03.598Z,395.95
2016-12-03T01:26:03.520Z,393.78
2016-12-03T01:27:03.563Z,391.39
2016-12-03T01:28:03.572Z,390.48
2016-12-03T01:29:03.623Z,391.57
2016-12-03T01:30:03.703Z,392.23
2016-12-03T01:31:03.901Z,393.75
2016-12-03T01:32:03.601Z,394.23
2016-12-03T01:33:03.876Z,393.58
2016-12-03T01:34:03.671Z,392.02
2016-12-03T01:35:03.932Z,392.7
2016-12-03T01:36:03.642Z,390.46
2016-12-03T01:37:03.925Z,391.42
2016-12-03T01:38:03.630Z,391.4
2016-12-03T01:39:03.991Z,390.78
2016-12-03T01:40:03.657Z,390.78
2016-12-03T01:41:03.622Z,391.85
2016-12-03T01:42:03.542Z,391.34
2016-12-03T01:43:03.629Z,389.84
2016-12-03T01:44:03.532Z,388.14
2016-12-03T01:45:03.719Z,388.2
2016-12-03T01:46:03.656Z,389.23
2016-12-03T01:47:03.621Z,389.22
2016-12-03T01:48:03.613Z,388.9
2016-12-03T01:49:03.562Z,390.46
2016-12-03T01:50:03.653Z,389.56
2016-12-03T01:51:03.635Z,386.75
2016-12-03T01:52:03.582Z,384.99
2016-12-03T01:53:03.622Z,383.61
2016-12-03T01:54:03.632Z,384.05
2016-12-03T01:55:03.825Z,384.32
2016-12-03T01:56:03.589Z,379.46
2016-12-03T01:57:03.665Z,376.51
2016-12-03T01:58:03.569Z,375.83
2016-12-03T01:59:03.636Z,376.12
2016-12-03T02:00:03.601Z,374.58
2016-12-03T02:01:03.601Z,373.93
2016-12-03T02:02:03.569Z,372.98
2016-12-03T02:03:03.623Z,373.23
2016-12-03T02:04:03.590Z,372.63
2016-12-03T02:05:03.629Z,369.55
2016-12-03T02:06:03.591Z,368.42
2016-12-03T02:07:03.721Z,369.99
2016-12-03T02:08:03.583Z,369.28
2016-12-03T02:09:03.627Z,369.13
2016-12-03T02:10:03.628Z,368.49
2016-12-03T02:11:03.669Z,365.85
2016-12-03T02:12:03.609Z,365.59
2016-12-03T02:13:03.625Z,363.12
2016-12-03T02:14:03.621Z,363.54
2016-12-03T02:15:03.714Z,362.48
2016-12-03T02:16:03.591Z,361.6
2016-12-03T02:17:03.641Z,360.24
2016-12-03T02:18:03.574Z,360.92
2016-12-03T02:19:03.689Z,360.72
2016-12-03T02:20:03.660Z,361.24
2016-12-03T02:21:03.613Z,361.01
2016-12-03T02:22:03.577Z,359.93
2016-12-03T02:23:03.634Z,358.84
2016-12-03T02:24:03.640Z,358.35
2016-12-03T02:25:03.668Z,358.07
2016-12-03T02:26:03.617Z,356.55
2016-12-03T02:27:13.549Z,356.29
2016-12-03T02:28:03.612Z,356.97
2016-12-03T02:29:03.791Z,356.97
2016-12-03T02:30:03.624Z,356.95
2016-12-03T02:31:03.660Z,355.18
2016-12-03T02:32:03.618Z,357.34
2016-12-03T02:33:03.653Z,357.37
2016-12-03T02:37:31.090Z,354.9
2016-12-03T02:38:31.026Z,354.04
2016-12-03T02:39:30.973Z,353.39
2016-12-03T02:40:31.039Z,352.69
2016-12-03T02:41:31.030Z,351.58
2016-12-03T02:42:31.043Z,351.51
2016-12-03T02:43:30.993Z,351.33
2016-12-03T02:44:31.032Z,349.33
2016-12-03T02:45:31.061Z,348.91
2016-12-03T02:46:31.100Z,349.39
2016-12-03T02:47:32.048Z,349.81
2016-12-03T02:48:31.024Z,350.46
2016-12-03T02:49:31.050Z,348.68
2016-12-03T02:50:31.131Z,348.44
2016-12-03T02:51:31.055Z,348.67
2016-12-03T02:52:31.058Z,348.68
2016-12-03T02:53:31.111Z,347.38
2016-12-03T02:54:31.018Z,348.73
2016-12-03T02:55:31.265Z,347.34
2016-12-03T02:56:31.032Z,347.3
2016-12-03T02:57:31.130Z,346.93
2016-12-03T02:58:31.127Z,350.04
2016-12-03T02:59:31.046Z,351.16
2016-12-03T03:00:31.075Z,351.65
2016-12-03T03:01:31.071Z,356.76
2016-12-03T03:02:31.064Z,354.09
2016-12-03T03:03:31.031Z,355.21
2016-12-03T03:04:31.154Z,350.47
2016-12-03T03:05:31.002Z,352.53
2016-12-03T03:06:31.068Z,352.54
2016-12-03T03:07:31.092Z,352.28
2016-12-03T03:08:31.032Z,352.53
2016-12-03T03:09:31.064Z,352.3
2016-12-03T03:10:31.122Z,355
2016-12-03T03:11:31.081Z,352.46
2016-12-03T03:12:31.091Z,354.53
2016-12-03T03:13:31.049Z,353.8
2016-12-03T03:14:31.092Z,355.22
2016-12-03T03:15:31.100Z,354.97
2016-12-03T03:16:31.098Z,352.45
2016-12-03T03:17:31.062Z,352.69
2016-12-03T03:18:31.088Z,352.03
2016-12-03T03:19:31.118Z,351.97
2016-12-03T03:20:31.116Z,352.89
2016-12-03T03:21:31.056Z,353.6
2016-12-03T03:22:31.127Z,352.72
2016-12-03T03:23:31.154Z,352.75
2016-12-03T03:24:31.151Z,352.53
2016-12-03T03:25:31.067Z,349.6
2016-12-03T03:26:31.094Z,347.83
2016-12-03T03:27:31.180Z,349.39
2016-12-03T03:28:31.071Z,350.09
2016-12-03T03:29:31.108Z,350.73
2016-12-03T03:30:31.157Z,347.35
2016-12-03T03:31:31.132Z,344.92
2016-12-03T03:32:31.197Z,346.46
2016-12-03T03:33:31.128Z,344.23
2016-12-03T03:34:31.092Z,345.34
2016-12-03T03:35:31.084Z,345.56
2016-12-03T03:36:31.111Z,344.67
2016-12-03T03:37:31.193Z,341.08
2016-12-03T03:42:00.982Z,334.39
2016-12-03T03:43:00.971Z,331.92
2016-12-03T03:44:00.909Z,332.82
2016-12-03T03:45:00.962Z,335.33
2016-12-03T03:46:01.009Z,336.61
2016-12-03T03:47:00.950Z,338
2016-12-03T03:48:01.008Z,337.08
2016-12-03T03:49:00.933Z,336.63
2016-12-03T03:50:00.968Z,335.85
2016-12-03T03:51:00.910Z,333.76
2016-12-03T03:52:00.947Z,334.23
2016-12-03T03:53:01.007Z,335.38
2016-12-03T03:54:00.960Z,334.86
2016-12-03T03:55:00.928Z,334.69
2016-12-03T03:56:00.941Z,333.72
2016-12-03T03:57:00.980Z,333.51
2016-12-03T03:58:01.006Z,334.24
2016-12-03T03:59:00.990Z,337.4
2016-12-03T04:00:00.969Z,334.05
2016-12-03T04:01:00.940Z,333.12
2016-12-03T04:02:00.962Z,334.97
2016-12-03T04:03:00.980Z,334.7
2016-12-03T04:04:00.970Z,332.18
2016-12-03T04:05:00.951Z,331.18
2016-12-03T04:06:00.981Z,330.67
2016-12-03T04:07:00.983Z,331.74
2016-12-03T04:08:00.974Z,332.43
2016-12-03T04:09:00.946Z,331.74
2016-12-03T04:10:00.946Z,331.5
2016-12-03T04:11:00.974Z,330.83
2016-12-03T04:12:00.957Z,329.69
2016-12-03T04:13:00.988Z,331.26
2016-12-03T04:14:01.044Z,329.73
2016-12-03T04:15:00.993Z,328.58
2016-12-03T04:16:00.984Z,327.2
2016-12-03T04:17:00.981Z,331.03
2016-12-03T04:18:00.993Z,332.78
2016-12-03T04:19:00.976Z,333.26
2016-12-03T04:20:00.987Z,332.61
2016-12-03T04:21:00.957Z,334.4
2016-12-03T04:22:00.956Z,335.31
2016-12-03T04:23:01.059Z,333.96
2016-12-03T04:24:01.038Z,335.76
2016-12-03T04:25:01.044Z,337.84
2016-12-03T04:26:01.009Z,340.03
2016-12-03T04:27:01.051Z,340.33
2016-12-03T04:28:01.039Z,339.18
2016-12-03T04:29:00.981Z,338.73
2016-12-03T04:30:00.976Z,338.47
2016-12-03T04:31:01.036Z,340.08
2016-12-03T04:32:00.946Z,335.13
2016-12-03T04:33:01.022Z,334.93
2016-12-03T04:34:01.018Z,335.82
2016-12-03T04:35:00.987Z,333.18
2016-12-03T04:36:01.003Z,332.47
2016-12-03T04:37:01.006Z,330.88
2016-12-03T04:38:01.057Z,327.95
2016-12-03T04:39:00.986Z,328.63
2016-12-03T04:40:00.985Z,328.41
2016-12-03T04:41:01.013Z,324.58
2016-12-03T04:42:01.006Z,324.66
2016-12-03T04:43:01.043Z,324.14
2016-12-03T04:44:01.050Z,327.14
2016-12-03T04:45:01.033Z,325.35
2016-12-03T04:46:01.027Z,324.4
2016-12-03T04:47:01.020Z,326.46
2016-12-03T04:48:01.009Z,325.78
2016-12-03T04:49:01.037Z,325.81
2016-12-03T04:50:01.033Z,323.53
2016-12-03T04:51:00.972Z,320.82
2016-12-03T04:52:00.994Z,321.28
2016-12-03T04:53:01.097Z,318.58
2016-12-03T04:54:00.956Z,320.82
2016-12-03T04:55:01.019Z,322.91
2016-12-03T04:56:01.574Z,321.67
2016-12-03T04:57:01.065Z,319.71
2016-12-03T04:58:01.055Z,318.33
2016-12-03T04:59:01.008Z,318.05
2016-12-03T05:00:01.004Z,317.78
2016-12-03T05:01:00.985Z,319.02
2016-12-03T05:02:01.016Z,318.99
2016-12-03T05:03:01.055Z,318.37
2016-12-03T05:04:00.992Z,316.56
2016-12-03T05:05:01.048Z,317.71
2016-12-03T05:06:01.009Z,318.43
2016-12-03T05:07:01.002Z,318.86
2016-12-03T05:08:01.032Z,318.94
2016-12-03T05:09:01.031Z,314.37
2016-12-03T05:10:01.018Z,312.51
2016-12-03T05:11:01.047Z,314.16
2016-12-03T05:12:01.031Z,312.11
2016-12-03T05:13:01.038Z,310.06
2016-12-03T05:14:01.108Z,309.19
2016-12-03T05:15:01.017Z,310.13
2016-12-03T05:16:01.057Z,307.86
2016-12-03T05:17:01.099Z,309.91
2016-12-03T05:18:01.073Z,311.52
2016-12-03T05:19:01.007Z,310.66
2016-12-03T05:20:01.016Z,308.92
2016-12-03T05:21:01.007Z,307.11
2016-12-03T05:22:01.011Z,307.56
2016-12-03T05:23:01.114Z,303.92
2016-12-03T05:24:01.026Z,305.33
2016-12-03T05:25:01.015Z,303.51
2016-12-03T05:26:01.009Z,302.39
2016-12-03T05:27:01.035Z,303.98
2016-12-03T05:28:01.077Z,301.65
2016-12-03T05:29:01.110Z,300.81
2016-12-03T05:30:01.083Z,296.89
2016-12-03T05:31:01.058Z,296.68
2016-12-03T05:32:00.996Z,295.06
2016-12-03T05:33:01.108Z,294.61
2016-12-03T05:34:01.081Z,293.23
2016-12-03T05:35:01.066Z,293.19
2016-12-03T05:36:01.096Z,292.11
2016-12-03T05:37:01.086Z,291.4
2016-12-03T05:38:01.086Z,291.44
2016-12-03T05:39:01.073Z,295.53
2016-12-03T05:40:01.075Z,295.54
2016-12-03T05:41:01.074Z,291.41
2016-12-03T05:42:01.059Z,291.82
2016-12-03T05:43:01.144Z,293.27
2016-12-03T05:44:01.060Z,292.32
2016-12-03T05:45:01.053Z,292.83
2016-12-03T05:46:01.056Z,293.28
2016-12-03T05:47:01.087Z,294.39
2016-12-03T05:48:01.102Z,295.07
2016-12-03T05:49:01.032Z,295.78
2016-12-03T05:50:01.061Z,292.73
2016-12-03T05:51:01.126Z,294.19
2016-12-03T05:52:01.034Z,288.35
2016-12-03T05:53:01.122Z,286.99
2016-12-03T05:54:01.076Z,284.93
2016-12-03T05:55:01.096Z,282.87
2016-12-03T05:56:01.173Z,281.93
2016-12-03T05:57:01.188Z,279.42
2016-12-03T05:58:01.292Z,278.24
2016-12-03T05:59:01.663Z,276.14
2016-12-03T06:00:01.432Z,273.89
2016-12-03T06:01:01.193Z,277.81
2016-12-03T06:02:01.076Z,277.12
2016-12-03T06:03:01.167Z,278.26
2016-12-03T06:04:01.123Z,276.43
2016-12-03T06:05:01.106Z,277.14
2016-12-03T06:06:01.225Z,274.4
2016-12-03T06:07:01.147Z,274.83
2016-12-03T06:08:01.143Z,276.06
2016-12-03T06:09:01.096Z,272.77
2016-12-03T06:10:01.127Z,272.11
2016-12-03T06:11:01.201Z,268.89
2016-12-03T06:12:01.126Z,271.74
2016-12-03T06:13:01.137Z,268.42
2016-12-03T06:14:01.146Z,266.34
2016-12-03T06:15:01.132Z,263.29
2016-12-03T06:16:01.117Z,268.23
2016-12-03T06:17:01.091Z,268.91
2016-12-03T06:18:01.157Z,269.89
2016-12-03T06:19:01.136Z,273.36
2016-12-03T06:20:01.139Z,274.07
2016-12-03T06:21:01.114Z,273.67
2016-12-03T06:22:01.123Z,272.04
2016-12-03T06:23:01.156Z,268.26
2016-12-03T06:24:01.123Z,273.01
2016-12-03T06:25:01.188Z,268.54
2016-12-03T06:26:01.105Z,269.74
2016-12-03T06:27:01.116Z,269.02
2016-12-03T06:28:01.125Z,270.18
2016-12-03T06:29:01.115Z,268.15
2016-12-03T06:30:01.106Z,265.61
2016-12-03T06:31:01.077Z,268.24
2016-12-03T06:32:01.175Z,268
2016-12-03T06:33:01.158Z,268.24
2016-12-03T06:34:01.160Z,265.46
2016-12-03T06:35:01.177Z,263.57
2016-12-03T06:36:01.190Z,269.03
2016-12-03T06:37:01.149Z,268.12
2016-12-03T06:38:01.214Z,270.45
2016-12-03T06:39:01.162Z,268.62
2016-12-03T06:40:01.148Z,270.73
2016-12-03T06:41:01.129Z,267.66
2016-12-03T06:42:01.117Z,267
2016-12-03T06:43:01.207Z,266.54
2016-12-03T06:44:01.152Z,266.36
2016-12-03T06:45:01.130Z,260.22
2016-12-03T06:46:01.168Z,260.06
2016-12-03T06:47:01.157Z,257.07
2016-12-03T06:48:01.193Z,259.87
2016-12-03T06:49:01.171Z,259.18
2016-12-03T06:50:01.124Z,261.7
2016-12-03T06:51:01.132Z,260.58
2016-12-03T06:52:01.226Z,258.66
2016-12-03T06:53:01.157Z,262.4
2016-12-03T06:54:01.129Z,259.59
2016-12-03T06:55:01.326Z,260.8
2016-12-03T06:56:01.197Z,260.55
2016-12-03T06:57:01.214Z,260.04
2016-12-03T06:58:01.252Z,257.33
2016-12-03T06:59:01.119Z,254.28
2016-12-03T07:00:01.186Z,247.28
2016-12-03T07:01:01.167Z,248.23
2016-12-03T07:02:01.284Z,246.06
2016-12-03T07:03:01.181Z,247.47
2016-12-03T07:04:01.199Z,249.36
2016-12-03T07:05:01.149Z,252.68
2016-12-03T07:06:01.174Z,250.1
2016-12-03T07:07:01.546Z,248.67
2016-12-03T07:08:01.452Z,248.94
2016-12-03T07:09:01.430Z,247.07
2016-12-03T07:10:01.260Z,241.71
2016-12-03T07:11:01.254Z,241.5
2016-12-03T07:12:01.313Z,240.84
2016-12-03T07:13:01.381Z,239.44
2016-12-03T07:14:01.367Z,239.23
2016-12-03T07:15:01.356Z,240.21
2016-12-03T07:16:01.402Z,242.84
2016-12-03T07:17:01.317Z,244.47
2016-12-03T07:18:01.579Z,245.84
2016-12-03T07:19:01.348Z,244.24
2016-12-03T07:20:01.347Z,245.63
2016-12-03T07:21:01.343Z,245.89
2016-12-03T07:22:01.326Z,247.97
2016-12-03T07:23:01.685Z,251.93
2016-12-03T07:24:01.327Z,250.54
2016-12-03T07:25:01.354Z,251.96
2016-12-03T07:26:01.481Z,252.66
2016-12-03T07:27:01.365Z,251.76
2016-12-03T07:28:01.338Z,251.56
2016-12-03T07:29:01.377Z,256.28
2016-12-03T07:30:01.359Z,254.41
2016-12-03T07:31:01.257Z,255.66
2016-12-03T07:32:01.364Z,253.3
2016-12-03T07:33:01.532Z,251.42
2016-12-03T07:34:01.810Z,249.12
2016-12-03T07:35:01.491Z,248.65
2016-12-03T07:36:01.304Z,248.15
2016-12-03T07:37:01.462Z,246.46
2016-12-03T07:38:01.548Z,244.09
2016-12-03T07:39:01.489Z,245.73
2016-12-03T07:40:01.333Z,246.67
2016-12-03T07:41:01.391Z,245.31
2016-12-03T07:42:01.346Z,246.02
2016-12-03T07:43:01.433Z,247.63
2016-12-03T07:44:01.323Z,250.56
2016-12-03T07:45:01.345Z,252.7
2016-12-03T07:46:01.487Z,251.24
2016-12-03T07:47:01.471Z,254.14
2016-12-03T07:48:01.470Z,253.86
2016-12-03T07:49:01.303Z,253.61
2016-12-03T07:50:01.390Z,252.38
2016-12-03T07:51:02.058Z,253.55
2016-12-03T07:52:03.450Z,253.59
2016-12-03T07:53:09.592Z,256.18
2016-12-03T07:54:15.078Z,254.1
2016-12-03T07:55:14.610Z,256.41
2016-12-03T07:56:27.660Z,259.47
2016-12-03T07:57:15.513Z,260.21
2016-12-03T07:58:16.430Z,259.53
2016-12-03T07:59:19.956Z,263.33
2016-12-03T08:00:19.788Z,264.72
2016-12-03T08:01:16.096Z,267.3
2016-12-03T08:02:17.708Z,267.77
2016-12-03T08:03:15.828Z,268.01
2016-12-03T08:04:21.206Z,267.53
2016-12-03T08:05:24.413Z,269.69
2016-12-03T08:06:20.596Z,272.49
2016-12-03T08:07:20.576Z,272.66
2016-12-03T08:08:16.524Z,279.2
2016-12-03T08:09:23.854Z,282
2016-12-03T08:10:37.956Z,282.37
2016-12-03T08:11:39.915Z,284.93
2016-12-03T08:12:45.959Z,289.76
2016-12-03T08:14:08.600Z,293.25
2016-12-03T08:15:22.348Z,293.71
2016-12-03T08:16:37.544Z,296.3
2016-12-03T08:18:04.217Z,297.63
2016-12-03T08:19:46.695Z,299.89
2016-12-03T08:21:21.564Z,302.46
2016-12-03T08:22:34.711Z,301.8
2016-12-03T08:23:32.172Z,296.52
2016-12-03T08:24:53.049Z,303.94
2016-12-03T08:26:00.931Z,305.01
2016-12-03T08:27:12.816Z,305.91
2016-12-03T08:28:32.418Z,307.3
2016-12-03T08:29:51.040Z,304.6
2016-12-03T08:31:22.875Z,308.99
2016-12-03T08:32:41.914Z,319.77
2016-12-03T08:34:20.535Z,323.23
2016-12-03T08:36:21.018Z,324.51
2016-12-03T08:38:18.735Z,328.62
2016-12-03T08:39:28.265Z,332.94
2016-12-03T08:40:46.515Z,337.25
2016-12-03T08:42:28.707Z,346.93
2016-12-03T08:44:21.973Z,355.91
2016-12-03T08:46:02.332Z,358.15
2016-12-03T08:47:56.381Z,363.57
2016-12-03T08:49:33.938Z,365.09
2016-12-03T08:51:20.571Z,371.12
2016-12-03T08:52:48.153Z,373.01
2016-12-03T08:54:36.299Z,379.46
2016-12-03T08:56:20.348Z,385.43
2016-12-03T08:57:57.844Z,384.86
2016-12-03T08:59:43.473Z,393.19
2016-12-03T09:01:33.945Z,396.94
2016-12-03T09:03:47.361Z,404.09
2016-12-03T09:05:18.391Z,408.81
2016-12-03T09:06:35.552Z,414.07
2016-12-03T09:07:57.475Z,425.59
2016-12-03T09:09:29.504Z,428.55
2016-12-03T09:11:15.507Z,434.76
2016-12-03T09:12:47.445Z,444.55
2016-12-03T09:14:21.700Z,456.39
2016-12-03T09:15:58.905Z,466.28
2016-12-03T09:17:16.080Z,469.06
2016-12-03T09:18:52.155Z,475.02
2016-12-03T09:20:28.015Z,472.98
2016-12-03T09:21:49.452Z,481.55
2016-12-03T09:23:16.865Z,493.92
2016-12-03T09:24:51.261Z,492.34
2016-12-03T09:26:28.029Z,506.23
2016-12-03T09:27:37.722Z,509.92
2016-12-03T09:28:45.924Z,525.49
2016-12-03T09:30:00.538Z,534.69
2016-12-03T09:31:07.974Z,545.09
2016-12-03T09:32:08.465Z,536.91
2016-12-03T09:33:02.308Z,536.8
2016-12-03T09:34:01.456Z,549.29
2016-12-03T09:35:02.591Z,557.99
2016-12-03T09:36:02.527Z,546.71
2016-12-03T09:37:01.506Z,542.86
2016-12-03T09:38:01.452Z,545.86
2016-12-03T09:39:01.407Z,552.98
2016-12-03T09:40:01.391Z,558.57
2016-12-03T09:41:01.361Z,562.72
2016-12-03T09:42:01.780Z,570.56
2016-12-03T09:43:03.314Z,580.29
2016-12-03T09:44:02.076Z,574.86
2016-12-03T09:45:02.280Z,579.66
2016-12-03T09:46:01.402Z,575.39
2016-12-03T09:47:01.473Z,571.15
2016-12-03T09:48:03.093Z,573.47
2016-12-03T09:49:01.726Z,581.2
2016-12-03T09:50:01.348Z,584.66
2016-12-03T09:51:01.080Z,590.44
2016-12-03T09:52:01.778Z,593.36
2016-12-03T09:53:01.659Z,607.22
2016-12-03T09:54:01.735Z,610.94
2016-12-03T09:55:02.242Z,593.66
2016-12-03T09:56:02.625Z,608.09
2016-12-03T09:57:00.971Z,609.44
2016-12-03T09:58:03.094Z,613.04
2016-12-03T09:59:02.704Z,612.8
2016-12-03T10:00:02.135Z,616.41
2016-12-03T10:01:01.676Z,631.33
2016-12-03T10:02:02.452Z,636.64
2016-12-03T10:03:01.323Z,633.1
2016-12-03T10:04:01.213Z,642.18
2016-12-03T10:05:01.310Z,647.99
2016-12-03T10:06:01.923Z,654.21
2016-12-03T10:07:01.482Z,664.51
2016-12-03T10:08:12.680Z,660.91
2016-12-03T10:09:02.316Z,646.85
2016-12-03T10:10:03.055Z,643.26
2016-12-03T10:11:01.610Z,645.49
2016-12-03T10:12:01.349Z,651.53
2016-12-03T10:13:01.119Z,660.23
2016-12-03T10:14:02.251Z,674.87
2016-12-03T10:15:01.575Z,677.54
2016-12-03T10:16:01.644Z,685.07
2016-12-03T10:17:01.492Z,675.4
2016-12-03T10:18:05.725Z,668.97
2016-12-03T10:19:01.579Z,662.88
2016-12-03T10:23:36.927Z,686.71
2016-12-03T10:24:36.698Z,685.79
2016-12-03T10:25:36.724Z,677.79
2016-12-03T10:26:36.671Z,672.1
2016-12-03T10:27:36.433Z,676.41
2016-12-03T10:28:36.820Z,676.57
2016-12-03T10:29:36.249Z,668.53
2016-12-03T10:30:36.299Z,681.55
2016-12-03T10:31:36.865Z,689.77
2016-12-03T10:32:35.896Z,682.88
2016-12-03T10:33:36.419Z,686.74
2016-12-03T10:34:36.822Z,696.11
2016-12-03T10:35:36.310Z,709.96
2016-12-03T10:36:36.934Z,712.14
2016-12-03T10:37:36.718Z,704.32
2016-12-03T10:38:36.912Z,703.27
2016-12-03T10:39:36.951Z,701.37
2016-12-03T10:40:36.486Z,692.62
2016-12-03T10:41:36.255Z,688.64
2016-12-03T10:42:36.400Z,695.82
2016-12-03T10:43:36.539Z,703.73
2016-12-03T10:44:37.072Z,707.05
2016-12-03T10:45:37.099Z,712.39
2016-12-03T10:46:36.876Z,716.05
2016-12-03T10:47:36.609Z,734.31
2016-12-03T10:48:35.991Z,757.75
2016-12-03T10:49:36.201Z,758.03
2016-12-03T10:50:36.831Z,753.05
2016-12-03T10:51:37.230Z,749.93
2016-12-03T10:52:35.771Z,768.78
2016-12-03T10:53:36.503Z,767.22
2016-12-03T10:54:36.327Z,746.01
2016-12-03T10:55:36.249Z,749.35
2016-12-03T10:56:36.257Z,734.56
2016-12-03T10:57:36.177Z,722.04
2016-12-03T10:58:36.680Z,717.92
2016-12-03T10:59:36.791Z,716.38
2016-12-03T11:00:38.300Z,694.5
2016-12-03T11:01:38.504Z,698.12
2016-12-03T11:02:38.224Z,689.58
2016-12-03T11:03:36.850Z,686.18
2016-12-03T11:04:35.598Z,686.36
2016-12-03T11:05:35.643Z,690.03
2016-12-03T11:06:35.858Z,681.94
2016-12-03T11:07:35.704Z,682.55
2016-12-03T11:08:35.907Z,691.51
2016-12-03T11:09:35.937Z,703.3
2016-12-03T11:10:35.549Z,706.32
2016-12-03T11:11:35.736Z,708.73
2016-12-03T11:12:35.679Z,715.58
2016-12-03T11:13:35.922Z,717.85
2016-12-03T11:14:35.859Z,727.85
2016-12-03T11:15:35.630Z,733.52
2016-12-03T11:16:35.527Z,723.95
2016-12-03T11:17:35.569Z,708.58
2016-12-03T11:18:35.605Z,698.88
2016-12-03T11:19:35.553Z,695.91
2016-12-03T11:20:35.663Z,714.25
2016-12-03T11:21:35.876Z,734.53
2016-12-03T11:22:35.693Z,750.94
2016-12-03T11:23:35.779Z,742.48
2016-12-03T11:24:35.975Z,737.96
2016-12-03T11:25:35.947Z,738.45
2016-12-03T11:26:35.746Z,731.03
2016-12-03T11:27:35.741Z,730.16
2016-12-03T11:28:35.782Z,729.96
2016-12-03T11:29:35.678Z,736.7
2016-12-03T11:30:35.747Z,743.7
2016-12-03T11:31:35.637Z,745.5
2016-12-03T11:32:35.789Z,740.83
2016-12-03T11:33:35.845Z,748.81
2016-12-03T11:34:35.850Z,757.41
2016-12-03T11:35:36.053Z,760.95
2016-12-03T11:36:36.049Z,755.24
2016-12-03T11:37:35.727Z,760.61
2016-12-03T11:38:35.758Z,766.99
2016-12-03T11:39:36.092Z,756.47
2016-12-03T11:40:35.964Z,757.42
2016-12-03T11:41:36.167Z,763.98
2016-12-03T11:42:35.878Z,764.24
2016-12-03T11:43:35.892Z,759.41
2016-12-03T11:44:36.095Z,765.72
2016-12-03T11:45:36.371Z,758.45
2016-12-03T11:46:36.122Z,756.52
2016-12-03T11:47:35.809Z,770.35
2016-12-03T11:48:35.929Z,772.92
2016-12-03T11:49:36.043Z,769.02
2016-12-03T11:50:35.809Z,773.68
2016-12-03T11:51:35.856Z,762.39
2016-12-03T11:52:35.861Z,761.06
2016-12-03T11:53:35.955Z,755.97
2016-12-03T11:54:36.181Z,758.44
2016-12-03T11:55:36.138Z,739.72
2016-12-03T11:56:36.030Z,727.18
2016-12-03T11:57:36.106Z,718.33
2016-12-03T11:58:38.758Z,723.56
2016-12-03T11:59:36.278Z,739.04
2016-12-03T12:00:36.477Z,737.44
2016-12-03T12:01:36.272Z,747.06
2016-12-03T12:02:36.030Z,752.8
2016-12-03T12:03:35.720Z,731.47
2016-12-03T12:04:35.808Z,722.23
2016-12-03T12:05:36.345Z,716.46
2016-12-03T12:06:35.854Z,722.8
2016-12-03T12:07:36.160Z,734.38
2016-12-03T12:08:35.931Z,732.39
2016-12-03T12:09:36.035Z,727.45
2016-12-03T12:10:35.848Z,729.21
2016-12-03T12:11:35.856Z,730.15
2016-12-03T12:12:35.961Z,733.46
2016-12-03T12:13:36.023Z,732.31
2016-12-03T12:14:36.057Z,724.38
2016-12-03T12:15:35.801Z,703.88
2016-12-03T12:16:36.031Z,699.49
2016-12-03T12:17:35.846Z,700.57
2016-12-03T12:18:36.159Z,686.9
2016-12-03T12:19:36.047Z,681.95
2016-12-03T12:20:36.012Z,680.22
2016-12-03T12:21:35.886Z,695.87
2016-12-03T12:22:35.687Z,701.96
2016-12-03T12:23:35.875Z,716.69
2016-12-03T12:24:36.328Z,727.05
2016-12-03T12:25:35.840Z,741.05
2016-12-03T12:26:35.677Z,735.88
2016-12-03T12:27:35.731Z,750.7
2016-12-03T12:28:35.895Z,761.96
2016-12-03T12:29:35.953Z,779.06
2016-12-03T12:30:35.922Z,776.61
2016-12-03T12:31:35.882Z,770.94
2016-12-03T12:32:35.902Z,770.19
2016-12-03T12:33:36.184Z,774.58
2016-12-03T12:34:36.058Z,771.52
2016-12-03T12:35:35.978Z,782.5
2016-12-03T12:36:36.116Z,787.58
2016-12-03T12:37:35.915Z,796.51
2016-12-03T12:38:36.047Z,786.77
2016-12-03T12:39:36.098Z,787.23
2016-12-03T12:40:36.126Z,788.46
2016-12-03T12:41:35.815Z,784.12
2016-12-03T12:42:36.042Z,793.64
2016-12-03T12:43:35.929Z,794.03
2016-12-03T12:44:36.050Z,807.14
2016-12-03T12:45:35.752Z,823.3
2016-12-03T12:46:35.609Z,820.2
2016-12-03T12:47:36.068Z,819.98
2016-12-03T12:48:35.937Z,820.46
2016-12-03T12:49:37.114Z,820.92
2016-12-03T12:50:36.077Z,824.2
2016-12-03T12:51:35.967Z,815.54
2016-12-03T12:52:36.166Z,803.43
2016-12-03T12:53:36.345Z,798.48
2016-12-03T12:54:35.903Z,797.37
2016-12-03T12:55:36.268Z,807.37
2016-12-03T12:56:36.461Z,807.82
2016-12-03T12:57:36.392Z,797.1
2016-12-03T12:58:36.235Z,800.23
2016-12-03T12:59:36.189Z,797.15
2016-12-03T13:00:36.682Z,807.46
2016-12-03T13:01:36.530Z,808.2
2016-12-03T13:02:36.245Z,806.01
2016-12-03T13:03:36.300Z,812.31
2016-12-03T13:04:36.086Z,805.76
2016-12-03T13:05:36.196Z,801.25
2016-12-03T13:06:36.165Z,799.2
2016-12-03T13:07:36.061Z,775.7
2016-12-03T13:08:36.191Z,773.46
2016-12-03T13:09:36.260Z,783.2
2016-12-03T13:10:36.011Z,777.08
2016-12-03T13:11:35.942Z,758.05
2016-12-03T13:12:35.857Z,742.18